createdAt,value
2022-10-29T00:02:08.806Z,5.25
2022-10-29T00:04:35.583Z,5.30
2022-10-29T00:07:02.296Z,5.10
2022-10-29T00:09:29.093Z,4.78
2022-10-29T00:11:55.882Z,5.13
2022-10-29T00:14:22.916Z,5.07
2022-10-29T00:16:49.683Z,5.20
2022-10-29T00:19:16.373Z,5.90
2022-10-29T00:21:43.206Z,6.40
2022-10-29T00:24:10.728Z,6.05
2022-10-29T00:26:37.543Z,6.30
2022-10-29T00:29:04.305Z,5.60
2022-10-29T00:31:31.653Z,5.63
2022-10-29T00:33:58.487Z,5.80
2022-10-29T00:36:27.343Z,5.82
2022-10-29T00:38:54.340Z,6.18
2022-10-29T00:41:23.546Z,5.00
2022-10-29T00:43:52.849Z,4.90
2022-10-29T00:46:29.989Z,4.80
2022-10-29T00:48:57.680Z,4.65
2022-10-29T00:51:25.733Z,5.15
2022-10-29T00:53:56.465Z,4.70
2022-10-29T00:56:24.495Z,4.68
2022-10-29T00:58:51.375Z,5.18
2022-10-29T01:01:18.347Z,4.50
2022-10-29T01:03:45.329Z,4.15
2022-10-29T01:06:12.470Z,4.68
2022-10-29T01:08:39.163Z,4.85
2022-10-29T01:11:59.154Z,4.43
2022-10-29T01:15:13.524Z,4.32
2022-10-29T01:17:58.810Z,4.47
2022-10-29T01:21:13.430Z,4.53
2022-10-29T01:24:24.983Z,4.45
2022-10-29T01:27:38.451Z,4.40
2022-10-29T01:30:46.797Z,4.10
2022-10-29T01:33:25.696Z,4.25
2022-10-29T01:39:03.506Z,4.28
2022-10-29T01:41:50.685Z,4.28
2022-10-29T01:44:30.162Z,4.50
2022-10-29T01:47:01.170Z,4.40
2022-10-29T01:49:33.577Z,4.60
2022-10-29T01:52:02.523Z,4.43
2022-10-29T01:54:29.291Z,4.18
2022-10-29T01:56:59.828Z,4.13
2022-10-29T01:59:36.360Z,4.20
2022-10-29T02:02:29.741Z,4.47
2022-10-29T02:05:32.379Z,4.53
2022-10-29T02:08:22.240Z,4.20
2022-10-29T02:10:56.794Z,4.15
2022-10-29T02:13:30.868Z,4.05
2022-10-29T02:15:58.910Z,4.07
2022-10-29T02:18:25.728Z,4.40
2022-10-29T02:20:52.486Z,4.45
2022-10-29T02:23:19.365Z,4.75
2022-10-29T02:25:46.174Z,4.35
2022-10-29T02:28:13.322Z,4.25
2022-10-29T02:30:40.135Z,4.10
2022-10-29T02:33:06.851Z,4.40
2022-10-29T02:35:33.634Z,4.65
2022-10-29T02:38:00.589Z,4.32
2022-10-29T02:40:27.278Z,4.00
2022-10-29T02:42:55.180Z,4.38
2022-10-29T02:45:22.107Z,4.95
2022-10-29T02:47:48.869Z,4.72
2022-10-29T02:50:15.839Z,4.63
2022-10-29T02:52:42.560Z,4.90
2022-10-29T02:55:09.744Z,5.10
2022-10-29T02:57:36.569Z,4.60
2022-10-29T03:00:04.200Z,4.35
2022-10-29T03:02:30.919Z,3.90
2022-10-29T03:04:57.656Z,4.15
2022-10-29T03:07:24.685Z,4.60
2022-10-29T03:09:51.463Z,4.60
2022-10-29T03:12:18.366Z,3.95
2022-10-29T03:14:45.079Z,4.50
2022-10-29T03:17:11.914Z,4.68
2022-10-29T03:19:38.796Z,4.90
2022-10-29T03:22:05.474Z,4.78
2022-10-29T03:24:32.251Z,4.43
2022-10-29T03:26:59.102Z,4.90
2022-10-29T03:29:25.765Z,4.93
2022-10-29T03:31:52.588Z,4.93
2022-10-29T03:34:19.344Z,4.55
2022-10-29T03:36:46.141Z,4.13
2022-10-29T03:39:12.904Z,4.88
2022-10-29T03:41:39.645Z,4.55
2022-10-29T03:44:06.383Z,4.28
2022-10-29T03:46:33.322Z,5.53
2022-10-29T03:49:00.245Z,4.78
2022-10-29T03:51:26.967Z,4.68
2022-10-29T03:53:53.856Z,4.97
2022-10-29T03:56:21.001Z,4.68
2022-10-29T03:58:47.690Z,4.68
2022-10-29T04:01:14.571Z,4.45
2022-10-29T04:03:42.598Z,3.53
2022-10-29T04:06:11.905Z,3.22
2022-10-29T04:08:38.925Z,2.70
2022-10-29T04:11:06.283Z,2.17
2022-10-29T04:13:33.061Z,2.67
2022-10-29T04:15:59.807Z,3.28
2022-10-29T04:18:26.636Z,3.40
2022-10-29T04:28:10.313Z,3.85
2022-10-29T04:29:14.585Z,3.47
2022-10-29T04:31:41.531Z,3.50
2022-10-29T04:34:08.419Z,3.78
2022-10-29T04:36:35.271Z,4.05
2022-10-29T04:39:02.349Z,4.15
2022-10-29T04:41:29.322Z,4.70
2022-10-29T04:43:56.391Z,4.03
2022-10-29T04:46:23.311Z,3.90
2022-10-29T04:48:50.487Z,4.07
2022-10-29T04:51:21.782Z,4.53
2022-10-29T04:53:48.893Z,4.32
2022-10-29T04:56:15.974Z,4.43
2022-10-29T04:58:42.702Z,4.63
2022-10-29T05:01:09.598Z,4.70
2022-10-29T05:03:36.645Z,4.53
2022-10-29T05:06:05.567Z,4.88
2022-10-29T05:08:32.685Z,4.50
2022-10-29T05:11:03.476Z,4.68
2022-10-29T05:13:30.422Z,4.63
2022-10-29T05:15:57.286Z,4.40
2022-10-29T05:18:24.199Z,4.93
2022-10-29T05:20:55.129Z,4.28
2022-10-29T05:23:22.102Z,4.32
2022-10-29T05:25:49.372Z,4.97
2022-10-29T05:28:21.511Z,4.65
2022-10-29T05:30:52.802Z,4.95
2022-10-29T05:33:21.826Z,4.78
2022-10-29T05:35:49.074Z,5.00
2022-10-29T05:38:16.247Z,4.97
2022-10-29T05:40:45.430Z,4.70
2022-10-29T05:43:16.620Z,4.47
2022-10-29T05:45:44.073Z,4.10
2022-10-29T05:50:58.854Z,4.72
2022-10-29T05:53:25.774Z,4.88
2022-10-29T05:55:52.538Z,4.80
2022-10-29T05:58:19.399Z,5.72
2022-10-29T06:00:46.629Z,5.93
2022-10-29T06:03:16.339Z,6.28
2022-10-29T06:05:43.324Z,4.82
2022-10-29T06:08:10.702Z,4.88
2022-10-29T06:10:37.578Z,4.70
2022-10-29T06:13:13.187Z,4.93
2022-10-29T06:15:40.191Z,4.30
2022-10-29T06:18:07.117Z,5.47
2022-10-29T06:20:34.030Z,6.47
2022-10-29T06:23:00.822Z,6.28
2022-10-29T06:25:28.125Z,5.65
2022-10-29T06:28:02.158Z,5.70
2022-10-29T06:30:30.228Z,7.38
2022-10-29T06:32:57.462Z,7.43
2022-10-29T06:35:24.727Z,7.70
2022-10-29T06:37:51.482Z,7.25
2022-10-29T06:40:18.368Z,6.80
2022-10-29T06:42:45.218Z,7.07
2022-10-29T06:45:12.207Z,6.50
2022-10-29T06:47:43.402Z,6.65
2022-10-29T06:50:11.388Z,6.50
2022-10-29T06:52:38.557Z,6.53
2022-10-29T06:55:06.271Z,6.65
2022-10-29T06:57:33.093Z,7.07
2022-10-29T07:00:05.308Z,6.85
2022-10-29T07:02:35.449Z,6.10
2022-10-29T07:05:02.252Z,6.28
2022-10-29T07:07:29.451Z,6.50
2022-10-29T07:09:56.160Z,5.65
2022-10-29T07:12:22.851Z,7.85
2022-10-29T07:14:49.565Z,9.98
2022-10-29T07:17:16.338Z,7.95
2022-10-29T07:19:43.105Z,9.30
2022-10-29T07:22:09.850Z,8.25
2022-10-29T07:24:36.533Z,8.10
2022-10-29T07:27:03.362Z,10.10
2022-10-29T07:29:30.408Z,14.93
2022-10-29T07:31:57.130Z,25.85
2022-10-29T07:34:23.940Z,23.83
2022-10-29T07:36:50.936Z,18.27
2022-10-29T07:39:17.685Z,15.73
2022-10-29T07:41:44.850Z,12.70
2022-10-29T07:44:11.627Z,11.55
2022-10-29T07:46:38.299Z,8.30
2022-10-29T07:49:05.469Z,6.18
2022-10-29T07:51:32.500Z,6.43
2022-10-29T07:53:59.249Z,7.78
2022-10-29T07:56:26.026Z,5.65
2022-10-29T07:58:52.771Z,5.60
2022-10-29T08:01:19.677Z,6.47
2022-10-29T08:03:46.370Z,7.57
2022-10-29T08:06:13.080Z,7.22
2022-10-29T08:08:39.911Z,7.80
2022-10-29T08:11:07.301Z,9.90
2022-10-29T08:13:34.365Z,9.43
2022-10-29T08:16:01.008Z,9.70
2022-10-29T08:18:27.801Z,9.55
2022-10-29T08:20:54.523Z,11.07
2022-10-29T08:23:21.288Z,10.77
2022-10-29T08:25:48.127Z,13.07
2022-10-29T08:28:15.705Z,12.63
2022-10-29T08:30:44.274Z,11.50
2022-10-29T08:33:11.385Z,11.52
2022-10-29T08:35:38.081Z,11.40
2022-10-29T08:38:04.907Z,10.57
2022-10-29T08:40:49.637Z,26.83
2022-10-29T08:43:22.927Z,13.27
2022-10-29T08:45:51.353Z,11.60
2022-10-29T08:48:26.257Z,10.50
2022-10-29T08:51:32.645Z,10.88
2022-10-29T08:56:51.072Z,19.05
2022-10-29T08:59:21.224Z,14.32
2022-10-29T09:01:48.194Z,16.23
2022-10-29T09:04:36.508Z,19.17
2022-10-29T09:07:44.532Z,21.52
2022-10-29T09:10:33.574Z,21.40
2022-10-29T09:13:32.373Z,21.75
2022-10-29T09:16:05.850Z,21.08
2022-10-29T09:18:58.771Z,22.33
2022-10-29T09:21:53.377Z,35.22
2022-10-29T09:24:41.135Z,31.45
2022-10-29T09:27:44.078Z,23.65
2022-10-29T09:30:16.803Z,22.83
2022-10-29T09:33:01.097Z,21.20
2022-10-29T09:35:48.873Z,20.45
2022-10-29T09:38:25.812Z,20.42
2022-10-29T09:40:52.734Z,19.17
2022-10-29T09:43:57.579Z,17.88
2022-10-29T09:46:37.846Z,17.35
2022-10-29T09:49:57.354Z,16.70
2022-10-29T09:52:28.014Z,16.13
2022-10-29T09:54:55.230Z,14.27
2022-10-29T09:57:24.425Z,13.90
2022-10-29T10:00:00.017Z,11.32
2022-10-29T10:02:40.852Z,11.68
2022-10-29T10:05:23.935Z,10.35
2022-10-29T10:08:14.483Z,10.13
2022-10-29T10:10:54.357Z,8.98
2022-10-29T10:13:27.010Z,9.43
2022-10-29T10:16:02.464Z,8.82
2022-10-29T10:18:47.190Z,8.60
2022-10-29T10:21:35.663Z,8.43
2022-10-29T10:24:03.137Z,9.10
2022-10-29T10:26:57.132Z,8.63
2022-10-29T10:29:27.653Z,7.97
2022-10-29T10:32:17.774Z,8.00
2022-10-29T10:34:44.711Z,9.02
2022-10-29T10:37:16.250Z,8.75
2022-10-29T10:39:45.555Z,8.23
2022-10-29T10:42:47.231Z,7.88
2022-10-29T10:45:24.040Z,7.20
2022-10-29T10:47:57.968Z,6.68
2022-10-29T10:50:28.869Z,7.10
2022-10-29T10:53:00.792Z,7.30
2022-10-29T10:55:54.220Z,8.00
2022-10-29T10:58:40.875Z,9.77
2022-10-29T11:01:13.036Z,7.07
2022-10-29T11:03:45.870Z,9.27
2022-10-29T11:06:33.165Z,9.05
2022-10-29T11:09:12.784Z,8.85
2022-10-29T11:11:44.066Z,8.93
2022-10-29T11:14:50.315Z,8.57
2022-10-29T11:17:32.740Z,7.35
2022-10-29T11:20:04.660Z,7.60
2022-10-29T11:22:50.417Z,6.68
2022-10-29T11:25:21.783Z,6.15
2022-10-29T11:28:29.277Z,6.63
2022-10-29T11:31:05.563Z,6.93
2022-10-29T11:33:52.888Z,6.25
2022-10-29T11:36:24.025Z,5.30
2022-10-29T11:39:04.330Z,6.50
2022-10-29T11:41:55.447Z,5.75
2022-10-29T11:44:22.743Z,5.85
2022-10-29T11:47:10.647Z,5.95
2022-10-29T11:50:10.622Z,5.40
2022-10-29T11:53:16.390Z,5.47
2022-10-29T11:55:57.919Z,6.20
2022-10-29T11:58:51.829Z,5.82
2022-10-29T12:01:38.600Z,5.55
2022-10-29T12:04:27.627Z,6.13
2022-10-29T12:07:08.932Z,5.22
2022-10-29T12:10:02.178Z,4.95
2022-10-29T12:12:47.042Z,4.82
2022-10-29T12:15:33.173Z,6.10
2022-10-29T12:18:06.471Z,5.35
2022-10-29T12:20:49.706Z,5.87
2022-10-29T12:23:41.868Z,5.35
2022-10-29T12:26:26.669Z,5.60
2022-10-29T12:29:02.104Z,5.57
2022-10-29T12:31:39.617Z,5.75
2022-10-29T12:34:31.452Z,5.35
2022-10-29T12:37:36.704Z,5.78
2022-10-29T12:40:12.861Z,4.75
2022-10-29T12:42:39.998Z,5.18
2022-10-29T12:49:32.802Z,5.13
2022-10-29T12:52:05.451Z,5.10
2022-10-29T12:54:44.036Z,4.80
2022-10-29T12:57:34.835Z,4.85
2022-10-29T13:00:23.607Z,4.80
2022-10-29T13:02:55.367Z,5.13
2022-10-29T13:05:44.730Z,5.72
2022-10-29T13:08:19.310Z,4.75
2022-10-29T13:10:51.462Z,5.10
2022-10-29T13:13:27.471Z,4.85
2022-10-29T13:16:02.799Z,4.72
2022-10-29T13:18:52.761Z,5.30
2022-10-29T13:22:01.027Z,5.00
2022-10-29T13:24:28.795Z,4.90
2022-10-29T13:27:26.124Z,4.80
2022-10-29T13:30:25.902Z,4.53
2022-10-29T13:32:54.092Z,5.13
2022-10-29T13:35:21.503Z,5.10
2022-10-29T13:38:16.436Z,5.03
2022-10-29T13:41:05.629Z,4.93
2022-10-29T13:43:33.674Z,4.57
2022-10-29T13:46:17.574Z,5.18
2022-10-29T13:48:45.129Z,5.28
2022-10-29T13:51:16.497Z,5.75
2022-10-29T13:53:50.205Z,5.50
2022-10-29T13:56:29.422Z,5.45
2022-10-29T13:58:59.961Z,5.85
2022-10-29T14:01:27.753Z,5.38
2022-10-29T14:04:11.616Z,5.90
2022-10-29T14:06:39.853Z,5.13
2022-10-29T14:09:21.500Z,5.45
2022-10-29T14:12:00.079Z,5.20
2022-10-29T14:15:02.301Z,5.32
2022-10-29T14:17:29.123Z,5.75
2022-10-29T14:19:55.881Z,5.70
2022-10-29T14:22:41.011Z,6.55
2022-10-29T14:25:36.538Z,6.28
2022-10-29T14:28:32.414Z,6.53
2022-10-29T14:31:20.531Z,7.88
2022-10-29T14:33:56.929Z,6.95
2022-10-29T14:36:32.345Z,6.85
2022-10-29T14:39:03.364Z,6.90
2022-10-29T14:41:31.160Z,7.05
2022-10-29T14:44:19.099Z,6.97
2022-10-29T14:47:05.517Z,7.82
2022-10-29T14:49:34.435Z,7.30
2022-10-29T14:52:07.146Z,6.65
2022-10-29T14:54:40.104Z,6.15
2022-10-29T14:57:13.284Z,5.53
2022-10-29T14:59:46.491Z,5.77
2022-10-29T15:05:07.078Z,5.13
2022-10-29T15:07:35.677Z,5.38
2022-10-29T15:10:28.738Z,5.57
2022-10-29T15:12:55.732Z,5.80
2022-10-29T15:15:28.172Z,6.63
2022-10-29T15:17:58.988Z,6.20
2022-10-29T15:20:48.469Z,6.50
2022-10-29T15:23:26.796Z,6.50
2022-10-29T15:26:23.338Z,6.00
2022-10-29T15:28:55.429Z,6.25
2022-10-29T15:31:34.855Z,6.45
2022-10-29T15:34:09.613Z,7.10
2022-10-29T15:36:49.732Z,6.75
2022-10-29T15:39:58.412Z,7.50
2022-10-29T15:42:30.720Z,9.45
2022-10-29T15:45:19.079Z,10.23
2022-10-29T15:47:58.322Z,9.95
2022-10-29T15:50:46.096Z,11.57
2022-10-29T15:53:16.744Z,12.38
2022-10-29T15:55:44.120Z,11.68
2022-10-29T15:58:16.683Z,11.93
2022-10-29T16:00:44.124Z,9.52
2022-10-29T16:03:34.157Z,9.77
2022-10-29T16:06:06.033Z,9.48
2022-10-29T16:08:44.043Z,10.25
2022-10-29T16:11:14.107Z,9.18
2022-10-29T16:13:41.603Z,9.38
2022-10-29T16:16:19.365Z,8.73
2022-10-29T16:18:47.118Z,9.27
2022-10-29T16:21:16.580Z,10.25
2022-10-29T16:23:44.343Z,10.63
2022-10-29T16:26:16.503Z,10.55
2022-10-29T16:28:43.880Z,9.10
2022-10-29T16:31:27.885Z,8.23
2022-10-29T16:33:59.245Z,9.35
2022-10-29T16:36:26.135Z,8.98
2022-10-29T16:38:53.111Z,9.38
2022-10-29T16:41:20.936Z,8.18
2022-10-29T16:43:48.472Z,8.70
2022-10-29T16:46:15.762Z,8.02
2022-10-29T16:48:42.654Z,8.63
2022-10-29T16:51:10.090Z,7.47
2022-10-29T16:53:36.861Z,7.60
2022-10-29T16:56:04.036Z,7.13
2022-10-29T16:58:31.136Z,6.80
2022-10-29T17:01:06.229Z,6.95
2022-10-29T17:03:33.502Z,6.55
2022-10-29T17:06:08.239Z,5.93
2022-10-29T17:08:35.639Z,6.95
2022-10-29T17:11:04.331Z,6.20
2022-10-29T17:13:30.974Z,5.90
2022-10-29T17:15:58.124Z,6.22
2022-10-29T17:18:24.980Z,6.55
2022-10-29T17:20:56.348Z,5.90
2022-10-29T17:23:23.313Z,5.78
2022-10-29T17:25:54.605Z,6.93
2022-10-29T17:28:22.512Z,6.85
2022-10-29T17:30:49.371Z,12.88
2022-10-29T17:33:16.608Z,13.05
2022-10-29T17:35:43.981Z,10.00
2022-10-29T17:38:11.737Z,16.65
2022-10-29T17:40:38.511Z,12.20
2022-10-29T17:43:05.250Z,16.73
2022-10-29T17:45:32.181Z,5.75
2022-10-29T17:47:59.713Z,6.53
2022-10-29T17:50:27.141Z,7.80
2022-10-29T17:52:54.688Z,6.57
2022-10-29T17:55:21.523Z,5.70
2022-10-29T17:57:48.285Z,6.60
2022-10-29T18:00:15.589Z,6.07
2022-10-29T18:02:42.593Z,6.35
2022-10-29T18:05:09.663Z,6.40
2022-10-29T18:07:36.568Z,5.38
2022-10-29T18:10:03.925Z,7.13
2022-10-29T18:12:30.647Z,5.53
2022-10-29T18:14:57.392Z,6.15
2022-10-29T18:17:24.416Z,6.20
2022-10-29T18:19:51.105Z,5.63
2022-10-29T18:22:17.944Z,5.97
2022-10-29T18:24:44.651Z,5.97
2022-10-29T18:27:11.417Z,5.82
2022-10-29T18:29:38.073Z,6.18
2022-10-29T18:32:05.314Z,6.32
2022-10-29T18:34:34.347Z,6.97
2022-10-29T18:37:01.125Z,6.55
2022-10-29T18:39:28.112Z,7.68
2022-10-29T18:41:54.800Z,8.55
2022-10-29T18:44:21.664Z,16.95
2022-10-29T18:46:48.383Z,18.42
2022-10-29T18:49:15.810Z,17.95
2022-10-29T18:51:42.485Z,18.35
2022-10-29T18:54:11.112Z,18.77
2022-10-29T18:56:37.818Z,20.55
2022-10-29T18:59:05.060Z,19.75
2022-10-29T19:01:33.838Z,20.88
2022-10-29T19:04:02.604Z,20.08
2022-10-29T19:06:31.936Z,19.40
2022-10-29T19:09:01.102Z,15.18
2022-10-29T19:11:28.709Z,11.65
2022-10-29T19:13:57.426Z,13.05
2022-10-29T19:16:24.580Z,12.30
2022-10-29T19:19:00.406Z,11.38
2022-10-29T19:21:27.605Z,10.85
2022-10-29T19:23:59.343Z,9.90
2022-10-29T19:26:28.685Z,10.15
2022-10-29T19:28:55.647Z,12.25
2022-10-29T19:31:24.587Z,13.85
2022-10-29T19:33:53.385Z,16.88
2022-10-29T19:36:20.842Z,15.50
2022-10-29T19:38:48.238Z,15.45
2022-10-29T19:41:15.820Z,15.80
2022-10-29T19:43:42.838Z,15.15
2022-10-29T19:46:12.710Z,14.13
2022-10-29T19:48:40.083Z,14.93
2022-10-29T19:51:07.625Z,14.32
2022-10-29T19:53:34.347Z,14.25
2022-10-29T19:56:01.000Z,14.07
2022-10-29T19:58:28.045Z,13.15
2022-10-29T20:00:55.545Z,13.65
2022-10-29T20:03:22.272Z,14.23
2022-10-29T20:05:49.399Z,14.52
2022-10-29T20:08:16.495Z,14.10
2022-10-29T20:10:44.033Z,13.82
2022-10-29T20:13:11.110Z,14.40
2022-10-29T20:15:40.966Z,12.95
2022-10-29T20:18:07.665Z,12.98
2022-10-29T20:20:34.976Z,13.27
2022-10-29T20:23:02.060Z,12.48
2022-10-29T20:25:29.088Z,13.30
2022-10-29T20:27:55.805Z,12.35
2022-10-29T20:30:22.471Z,12.40
2022-10-29T20:32:49.388Z,12.40
2022-10-29T20:35:17.049Z,11.65
2022-10-29T20:37:44.125Z,11.50
2022-10-29T20:40:11.749Z,10.30
2022-10-29T20:42:38.681Z,10.52
2022-10-29T20:45:06.053Z,10.70
2022-10-29T20:47:33.019Z,10.43
2022-10-29T20:49:59.780Z,10.68
2022-10-29T20:52:26.555Z,9.98
2022-10-29T20:54:53.201Z,10.20
2022-10-29T20:57:20.025Z,10.18
2022-10-29T20:59:46.727Z,9.60
2022-10-29T21:02:13.591Z,10.60
2022-10-29T21:04:40.284Z,9.73
2022-10-29T21:07:07.984Z,10.27
2022-10-29T21:09:35.273Z,9.95
2022-10-29T21:12:02.252Z,9.65
2022-10-29T21:14:29.896Z,9.20
2022-10-29T21:16:56.612Z,10.05
2022-10-29T21:19:24.284Z,9.27
2022-10-29T21:21:50.995Z,9.95
2022-10-29T21:24:18.183Z,9.43
2022-10-29T21:26:45.001Z,9.05
2022-10-29T21:29:11.856Z,8.85
2022-10-29T21:31:38.751Z,9.80
2022-10-29T21:34:05.643Z,9.27
2022-10-29T21:36:32.385Z,8.13
2022-10-29T21:38:59.218Z,8.75
2022-10-29T21:41:25.837Z,8.65
2022-10-29T21:43:52.646Z,8.68
2022-10-29T21:46:19.406Z,8.85
2022-10-29T21:48:46.197Z,9.75
2022-10-29T21:51:14.516Z,9.30
2022-10-29T21:53:41.290Z,9.00
2022-10-29T21:56:10.158Z,8.70
2022-10-29T21:58:37.028Z,8.30
2022-10-29T22:01:15.198Z,7.72
2022-10-29T22:03:43.734Z,8.07
2022-10-29T22:06:18.781Z,7.30
2022-10-29T22:08:46.377Z,7.88
2022-10-29T22:11:14.644Z,7.72
2022-10-29T22:13:41.577Z,8.80
2022-10-29T22:16:09.168Z,8.43
2022-10-29T22:18:36.965Z,8.63
2022-10-29T22:21:24.915Z,8.65
2022-10-29T22:23:56.585Z,8.43
2022-10-29T22:26:25.827Z,8.02
2022-10-29T22:28:52.936Z,8.43
2022-10-29T22:31:21.127Z,8.65
2022-10-29T22:33:48.546Z,8.70
2022-10-29T22:36:20.267Z,8.65
2022-10-29T22:38:47.004Z,8.38
2022-10-29T22:41:16.765Z,8.77
2022-10-29T22:43:44.032Z,8.73
2022-10-29T22:46:12.988Z,8.85
2022-10-29T22:48:39.861Z,8.80
2022-10-29T22:51:14.800Z,8.25
2022-10-29T22:53:41.882Z,8.10
2022-10-29T22:56:13.356Z,7.88
2022-10-29T22:58:40.729Z,8.00
2022-10-29T23:01:09.942Z,8.07
2022-10-29T23:03:39.673Z,7.68
2022-10-29T23:06:09.293Z,8.10
2022-10-29T23:08:38.820Z,8.48
2022-10-29T23:11:22.193Z,7.70
2022-10-29T23:13:57.728Z,7.05
2022-10-29T23:16:27.391Z,7.38
2022-10-29T23:18:58.841Z,7.00
2022-10-29T23:21:26.502Z,7.07
2022-10-29T23:23:57.524Z,8.15
2022-10-29T23:26:29.291Z,7.50
2022-10-29T23:28:59.484Z,7.05
2022-10-29T23:31:30.552Z,8.85
2022-10-29T23:34:00.868Z,9.27
2022-10-29T23:36:28.096Z,9.90
2022-10-29T23:39:07.118Z,10.07
2022-10-29T23:41:34.282Z,8.48
2022-10-29T23:44:01.053Z,8.30
2022-10-29T23:46:28.134Z,8.73
2022-10-29T23:48:58.284Z,8.32
2022-10-29T23:51:26.696Z,9.07
2022-10-29T23:53:56.609Z,9.07
2022-10-29T23:56:28.269Z,8.80
2022-10-29T23:59:00.110Z,9.27
